Time;durP1;ratioP1;P1;durP2;ratioP2;P2;SDS_P1;SDS_P2;PMS_P1;PMS_P2;Temp;Humidity;BMP_temperature;BMP_pressure;BME280_temperature;BME280_humidity;BME280_pressure;Samples;Min_cycle;Max_cycle;Signal;HPM_P1;HPM_P2
2021/07/02 00:00:28;;;;;;;5.97;5.27;;;16.40;1.00;;;;;;5117273;28;20455;-76
2021/07/02 00:02:54;;;;;;;6.57;5.90;;;16.40;1.00;;;;;;5117762;27;20419;-75
2021/07/02 00:05:21;;;;;;;8.73;7.00;;;16.50;1.00;;;;;;5118799;28;20482;-76
2021/07/02 00:07:47;;;;;;;8.03;7.20;;;16.50;1.00;;;;;;5112031;27;20579;-76
2021/07/02 00:10:15;;;;;;;8.73;7.83;;;16.50;1.00;;;;;;5112028;28;20424;-76
2021/07/02 00:12:42;;;;;;;8.87;7.97;;;16.50;1.00;;;;;;5114282;28;20442;-75
2021/07/02 00:15:10;;;;;;;9.60;8.70;;;16.50;1.00;;;;;;5116672;28;20475;-75
2021/07/02 00:17:37;;;;;;;9.87;7.47;;;16.50;1.00;;;;;;5117653;27;20413;-75
2021/07/02 00:20:05;;;;;;;11.67;10.57;;;16.50;1.00;;;;;;5112886;27;20458;-75
2021/07/02 00:22:33;;;;;;;10.67;9.67;;;16.50;1.00;;;;;;5119341;27;20416;-75
2021/07/02 00:24:59;;;;;;;11.43;9.80;;;16.50;1.00;;;;;;5120817;27;20451;-75
2021/07/02 00:27:27;;;;;;;9.53;8.60;;;16.50;1.00;;;;;;5119580;27;20475;-75
2021/07/02 00:29:54;;;;;;;11.40;9.30;;;16.50;1.00;;;;;;5117824;27;20464;-76
2021/07/02 00:32:20;;;;;;;13.33;11.30;;;16.50;1.00;;;;;;5116549;27;20413;-75
2021/07/02 00:34:47;;;;;;;15.13;12.00;;;16.50;1.00;;;;;;5117265;27;20420;-76
2021/07/02 00:37:14;;;;;;;15.63;13.00;;;16.50;1.00;;;;;;5099231;28;20447;-75
2021/07/02 00:39:40;;;;;;;15.67;13.27;;;16.60;1.00;;;;;;5076107;28;21351;-75
2021/07/02 00:42:07;;;;;;;19.73;14.73;;;16.60;1.00;;;;;;5089013;28;20454;-75
2021/07/02 00:44:39;;;;;;;16.83;13.10;;;16.60;1.00;;;;;;5087757;27;20451;-75
2021/07/02 00:47:06;;;;;;;15.63;13.97;;;16.60;1.00;;;;;;5089436;28;20442;-75
2021/07/02 00:49:34;;;;;;;16.37;13.67;;;16.50;1.00;;;;;;5085736;28;20429;-75
2021/07/02 00:52:00;;;;;;;15.43;13.53;;;16.60;1.00;;;;;;5087608;28;20459;-75
2021/07/02 00:54:27;;;;;;;18.17;14.73;;;16.60;1.00;;;;;;5087894;28;20467;-75
2021/07/02 00:56:54;;;;;;;21.43;15.90;;;16.60;1.00;;;;;;5090612;28;21794;-76
2021/07/02 00:59:20;;;;;;;20.43;16.70;;;16.60;1.00;;;;;;5087051;28;20502;-75
2021/07/02 01:01:49;;;;;;;21.10;16.37;;;16.60;1.00;;;;;;5087537;28;20482;-76
2021/07/02 01:04:15;;;;;;;17.77;14.17;;;16.60;1.00;;;;;;5084593;28;21540;-75
2021/07/02 01:06:42;;;;;;;23.63;15.80;;;16.60;1.00;;;;;;5082721;28;20596;-75
2021/07/02 01:09:09;;;;;;;24.23;17.47;;;16.60;1.00;;;;;;5082010;28;20447;-75
2021/07/02 01:11:35;;;;;;;22.93;17.13;;;16.60;1.00;;;;;;5084158;28;20423;-75
2021/07/02 01:14:02;;;;;;;22.00;17.07;;;16.60;1.00;;;;;;5085350;28;20490;-75
2021/07/02 01:16:29;;;;;;;26.13;17.73;;;16.60;1.00;;;;;;5086351;28;20973;-75
2021/07/02 01:18:57;;;;;;;25.33;18.17;;;16.60;1.00;;;;;;5085421;28;21056;-75
2021/07/02 01:21:25;;;;;;;22.90;17.77;;;16.60;1.00;;;;;;5083999;28;20459;-75
2021/07/02 01:23:52;;;;;;;25.37;17.70;;;16.60;1.00;;;;;;5086754;28;20455;-75
2021/07/02 01:26:19;;;;;;;26.50;17.70;;;16.60;1.00;;;;;;5085829;28;20938;-74
2021/07/02 01:28:46;;;;;;;27.10;19.87;;;16.50;1.00;;;;;;5086739;28;20443;-77
2021/07/02 01:31:13;;;;;;;28.23;18.93;;;16.60;1.00;;;;;;5085601;28;21014;-75
2021/07/02 01:33:39;;;;;;;23.70;17.87;;;16.60;1.00;;;;;;5086790;28;21093;-75
2021/07/02 01:36:07;;;;;;;29.40;19.77;;;16.70;1.00;;;;;;5086439;28;20582;-75
2021/07/02 01:38:35;;;;;;;28.87;19.03;;;16.70;1.00;;;;;;5087718;28;20421;-75
2021/07/02 01:41:02;;;;;;;27.43;19.13;;;16.70;1.00;;;;;;5089578;28;20471;-75
2021/07/02 01:43:28;;;;;;;31.77;20.13;;;16.70;1.00;;;;;;5088329;28;20462;-76
2021/07/02 01:45:55;;;;;;;34.70;20.43;;;16.70;1.00;;;;;;5087105;28;20456;-76
2021/07/02 01:48:22;;;;;;;32.03;19.40;;;16.70;1.00;;;;;;5087629;28;21103;-77
2021/07/02 01:50:49;;;;;;;31.20;20.07;;;16.70;1.00;;;;;;5086563;28;21224;-77
2021/07/02 01:53:16;;;;;;;26.37;19.50;;;16.70;1.00;;;;;;5085228;28;20528;-77
2021/07/02 01:55:44;;;;;;;27.53;19.77;;;16.70;1.00;;;;;;5086401;28;20455;-77
2021/07/02 01:58:10;;;;;;;31.33;21.00;;;16.70;1.00;;;;;;5086617;28;20987;-77
2021/07/02 02:00:37;;;;;;;31.47;20.20;;;16.70;1.00;;;;;;5089842;28;20471;-76
2021/07/02 02:03:04;;;;;;;28.40;18.67;;;16.70;1.00;;;;;;5087612;28;20447;-76
2021/07/02 02:05:30;;;;;;;36.10;23.03;;;16.70;1.00;;;;;;5086939;28;20444;-75
2021/07/02 02:07:57;;;;;;;38.40;22.87;;;16.70;1.00;;;;;;5088465;28;20903;-77
2021/07/02 02:10:24;;;;;;;30.57;22.77;;;16.80;1.00;;;;;;5087253;28;20464;-77
2021/07/02 02:12:52;;;;;;;34.63;23.50;;;16.80;1.00;;;;;;5084481;28;20519;-75
2021/07/02 02:15:19;;;;;;;34.83;22.77;;;16.80;1.00;;;;;;5086818;28;20498;-76
2021/07/02 02:17:45;;;;;;;38.93;23.93;;;16.80;1.00;;;;;;5088263;28;21350;-76
2021/07/02 02:20:13;;;;;;;31.47;23.70;;;16.80;1.00;;;;;;5086049;28;20457;-76
2021/07/02 02:22:40;;;;;;;32.17;22.37;;;16.90;1.00;;;;;;5086265;28;20450;-76
2021/07/02 02:25:08;;;;;;;35.57;23.23;;;16.90;1.00;;;;;;5086497;28;20447;-76
2021/07/02 02:27:35;;;;;;;38.20;25.47;;;16.90;1.00;;;;;;5084326;28;20440;-76
2021/07/02 02:30:05;;;;;;;35.57;24.30;;;16.90;1.00;;;;;;5086730;28;20456;-76
2021/07/02 02:32:31;;;;;;;36.70;24.23;;;16.90;1.00;;;;;;5086648;28;20418;-76
2021/07/02 02:34:58;;;;;;;38.23;24.63;;;17.00;1.00;;;;;;5085560;28;21178;-76
2021/07/02 02:37:24;;;;;;;37.40;24.13;;;17.00;1.00;;;;;;5087895;28;20442;-76
2021/07/02 02:39:51;;;;;;;36.03;24.93;;;17.00;1.00;;;;;;5088104;28;20452;-76
2021/07/02 02:42:18;;;;;;;40.33;26.90;;;17.10;1.00;;;;;;5086569;28;20479;-76
2021/07/02 02:44:44;;;;;;;43.13;25.53;;;17.10;1.00;;;;;;5086114;28;21108;-76
2021/07/02 02:47:12;;;;;;;41.47;28.00;;;17.10;1.00;;;;;;5084771;28;20456;-76
2021/07/02 02:49:39;;;;;;;39.73;27.17;;;17.10;1.00;;;;;;5083009;28;20465;-76
2021/07/02 02:52:06;;;;;;;47.10;30.30;;;17.10;1.00;;;;;;5083440;28;20459;-76
2021/07/02 02:54:33;;;;;;;39.40;26.10;;;17.10;1.00;;;;;;5086542;28;20445;-76
2021/07/02 02:57:06;;;;;;;48.87;27.73;;;17.10;1.00;;;;;;5084871;28;20441;-76
2021/07/02 02:59:34;;;;;;;41.80;27.67;;;17.10;1.00;;;;;;5087820;28;20491;-76
2021/07/02 03:02:01;;;;;;;43.27;27.80;;;17.10;1.00;;;;;;5084634;28;20427;-76
2021/07/02 03:04:31;;;;;;;43.00;27.50;;;17.10;1.00;;;;;;5085393;28;21286;-76
2021/07/02 03:06:57;;;;;;;40.90;27.67;;;17.20;1.00;;;;;;5085070;28;20462;-76
2021/07/02 03:09:24;;;;;;;47.03;27.70;;;17.20;1.00;;;;;;5088493;28;20465;-76
2021/07/02 03:11:52;;;;;;;41.50;26.97;;;17.20;1.00;;;;;;5086161;28;20443;-76
2021/07/02 03:14:19;;;;;;;35.10;28.27;;;17.20;1.00;;;;;;5086196;28;21313;-76
2021/07/02 03:16:46;;;;;;;37.80;28.10;;;17.30;1.00;;;;;;5085366;28;20459;-75
2021/07/02 03:19:13;;;;;;;33.27;27.83;;;17.30;1.00;;;;;;5086983;28;21846;-77
2021/07/02 03:21:41;;;;;;;31.03;26.00;;;17.40;1.00;;;;;;5085935;28;20458;-76
2021/07/02 03:24:08;;;;;;;30.73;24.43;;;17.40;1.00;;;;;;5090605;28;20452;-76
2021/07/02 03:26:35;;;;;;;32.50;25.60;;;17.40;1.00;;;;;;5090286;28;20452;-76
2021/07/02 03:29:02;;;;;;;31.27;25.20;;;17.40;1.00;;;;;;5087916;28;20462;-75
2021/07/02 03:31:28;;;;;;;26.03;23.17;;;17.50;1.00;;;;;;5087923;28;20449;-75
2021/07/02 03:33:55;;;;;;;23.37;20.97;;;17.50;1.00;;;;;;5086971;28;20465;-75
2021/07/02 03:36:22;;;;;;;26.57;23.17;;;17.40;1.00;;;;;;5087284;28;20853;-76
2021/07/02 03:38:50;;;;;;;22.83;20.43;;;17.40;1.00;;;;;;5089441;28;20468;-76
2021/07/02 03:41:17;;;;;;;24.40;21.23;;;17.40;1.00;;;;;;5091560;28;20455;-76
2021/07/02 03:43:43;;;;;;;24.43;21.93;;;17.40;1.00;;;;;;5087614;28;20507;-76
2021/07/02 03:46:10;;;;;;;23.23;21.03;;;17.40;1.00;;;;;;5088610;28;20445;-76
2021/07/02 03:48:37;;;;;;;22.13;19.90;;;17.40;1.00;;;;;;5087467;28;20984;-78
2021/07/02 03:51:03;;;;;;;23.07;20.77;;;17.40;1.00;;;;;;5088268;28;20911;-77
2021/07/02 03:53:30;;;;;;;23.00;20.03;;;17.40;1.00;;;;;;5089354;28;20444;-77
2021/07/02 03:55:58;;;;;;;21.17;18.93;;;17.40;1.00;;;;;;5088449;28;20516;-77
2021/07/02 03:58:25;;;;;;;21.83;18.93;;;17.40;1.00;;;;;;5085735;28;20471;-75
2021/07/02 04:00:52;;;;;;;24.03;21.50;;;17.40;1.00;;;;;;5088606;28;20457;-77
2021/07/02 04:03:18;;;;;;;24.37;21.97;;;17.50;1.00;;;;;;5088387;28;20473;-76
2021/07/02 04:05:45;;;;;;;26.80;21.50;;;17.50;1.00;;;;;;5088417;28;20444;-75
2021/07/02 04:08:12;;;;;;;23.80;21.47;;;17.40;1.00;;;;;;5086701;28;21163;-76
2021/07/02 04:10:39;;;;;;;23.13;20.83;;;17.40;1.00;;;;;;5087436;28;20455;-76
2021/07/02 04:13:07;;;;;;;24.57;22.23;;;17.50;1.00;;;;;;5090679;28;20507;-76
2021/07/02 04:15:38;;;;;;;25.40;22.80;;;17.50;1.00;;;;;;5089287;28;20444;-76
2021/07/02 04:18:06;;;;;;;23.00;20.63;;;17.60;1.00;;;;;;5090087;28;20517;-76
2021/07/02 04:20:33;;;;;;;20.97;19.07;;;17.60;1.00;;;;;;5087819;28;20405;-76
2021/07/02 04:23:00;;;;;;;20.83;18.80;;;17.70;1.00;;;;;;5089000;28;20505;-76
2021/07/02 04:25:27;;;;;;;19.30;17.50;;;17.80;1.00;;;;;;5090039;28;21484;-76
2021/07/02 04:27:53;;;;;;;19.60;17.80;;;17.90;1.00;;;;;;5090435;28;20504;-76
2021/07/02 04:30:21;;;;;;;21.57;19.40;;;17.90;1.00;;;;;;5088840;28;20429;-77
2021/07/02 04:32:48;;;;;;;18.73;16.83;;;18.00;1.00;;;;;;5088663;28;20461;-77
2021/07/02 04:35:15;;;;;;;19.60;17.90;;;18.10;1.00;;;;;;5087453;28;20484;-75
2021/07/02 04:37:43;;;;;;;18.53;16.90;;;18.20;1.00;;;;;;5088023;28;20533;-76
2021/07/02 04:40:11;;;;;;;19.70;17.80;;;18.20;1.00;;;;;;5089844;28;20467;-76
2021/07/02 04:42:38;;;;;;;21.33;19.43;;;18.20;1.00;;;;;;5082507;28;20511;-76
2021/07/02 04:45:06;;;;;;;18.80;16.90;;;18.20;1.00;;;;;;5088798;28;20446;-76
2021/07/02 04:47:34;;;;;;;16.53;15.10;;;18.20;1.00;;;;;;5087027;28;20479;-76
2021/07/02 04:50:01;;;;;;;16.37;14.20;;;18.20;1.00;;;;;;5087922;28;20932;-76
2021/07/02 04:52:28;;;;;;;15.17;13.67;;;18.10;1.00;;;;;;5087651;28;20452;-77
2021/07/02 04:54:55;;;;;;;14.50;13.30;;;18.20;1.00;;;;;;5085832;28;21570;-76
2021/07/02 04:57:21;;;;;;;13.83;12.40;;;18.20;1.00;;;;;;5089302;28;20454;-77
2021/07/02 04:59:50;;;;;;;13.57;12.37;;;18.30;1.00;;;;;;5088291;28;20436;-76
2021/07/02 05:02:17;;;;;;;12.60;11.50;;;18.30;1.00;;;;;;5085672;28;20466;-76
2021/07/02 05:04:45;;;;;;;15.43;12.70;;;18.30;1.00;;;;;;5082622;28;20520;-77
2021/07/02 05:07:14;;;;;;;13.70;12.50;;;18.40;1.00;;;;;;5089309;28;21031;-77
2021/07/02 05:09:42;;;;;;;14.97;13.43;;;18.40;1.00;;;;;;5082324;28;20453;-76
2021/07/02 05:12:10;;;;;;;15.80;14.30;;;18.40;1.00;;;;;;5087485;28;20532;-76
2021/07/02 05:14:37;;;;;;;14.43;13.13;;;18.40;1.00;;;;;;5084860;27;20442;-76
2021/07/02 05:17:05;;;;;;;14.90;13.57;;;18.40;1.00;;;;;;5087335;28;20459;-76
2021/07/02 05:19:32;;;;;;;13.47;12.17;;;18.40;1.00;;;;;;5088673;28;20469;-76
2021/07/02 05:22:00;;;;;;;14.77;13.27;;;18.40;1.00;;;;;;5084746;28;20472;-75
2021/07/02 05:24:26;;;;;;;13.67;12.37;;;18.40;1.00;;;;;;5086212;28;20901;-75
2021/07/02 05:26:53;;;;;;;13.97;12.43;;;18.50;1.00;;;;;;5089105;28;20449;-75
2021/07/02 05:29:20;;;;;;;12.40;11.23;;;18.50;1.00;;;;;;5088638;28;20956;-76
2021/07/02 05:31:46;;;;;;;13.43;12.23;;;18.60;1.00;;;;;;5086770;28;20580;-77
2021/07/02 05:34:13;;;;;;;13.17;11.87;;;18.60;1.00;;;;;;5087513;28;20477;-76
2021/07/02 05:36:39;;;;;;;16.20;14.53;;;18.60;1.00;;;;;;5087156;28;20481;-77
2021/07/02 05:39:07;;;;;;;13.60;12.20;;;18.60;1.00;;;;;;5086195;28;20438;-78
2021/07/02 05:41:34;;;;;;;14.50;13.00;;;18.70;1.00;;;;;;5086265;28;20458;-75
2021/07/02 05:44:01;;;;;;;15.70;13.17;;;18.70;1.00;;;;;;5089446;28;20462;-75
2021/07/02 05:46:29;;;;;;;17.87;13.57;;;18.80;1.00;;;;;;5088645;28;20453;-76
2021/07/02 05:48:56;;;;;;;13.30;12.00;;;18.90;1.00;;;;;;5087837;28;20417;-76
2021/07/02 05:51:23;;;;;;;16.33;13.00;;;18.90;1.00;;;;;;5089655;28;20481;-76
2021/07/02 05:53:49;;;;;;;13.40;12.10;;;19.10;1.00;;;;;;5087529;28;20489;-76
2021/07/02 05:56:17;;;;;;;14.40;12.50;;;19.10;1.00;;;;;;5086265;28;20460;-76
2021/07/02 05:58:44;;;;;;;15.50;13.90;;;19.10;1.00;;;;;;5088849;28;20453;-75
2021/07/02 06:01:11;;;;;;;15.47;11.50;;;18.90;1.00;;;;;;5084935;28;20462;-77
2021/07/02 06:03:37;;;;;;;13.10;11.67;;;19.00;1.00;;;;;;5082729;28;20503;-77
2021/07/02 06:06:04;;;;;;;12.37;11.07;;;18.90;1.00;;;;;;5086152;28;20785;-77
2021/07/02 06:08:30;;;;;;;13.20;11.03;;;18.90;1.00;;;;;;5087583;28;20441;-76
2021/07/02 06:10:59;;;;;;;17.83;11.47;;;18.90;1.00;;;;;;5085337;28;20449;-77
2021/07/02 06:13:27;;;;;;;15.10;11.37;;;18.90;1.00;;;;;;5085706;28;20940;-76
2021/07/02 06:15:54;;;;;;;12.60;11.30;;;18.90;1.00;;;;;;5086512;28;20458;-77
2021/07/02 06:18:20;;;;;;;16.13;12.70;;;18.90;1.00;;;;;;5084469;28;20932;-76
2021/07/02 06:20:51;;;;;;;15.00;13.50;;;18.90;1.00;;;;;;5088394;28;21276;-77
2021/07/02 06:23:18;;;;;;;12.50;11.20;;;18.90;1.00;;;;;;5086891;28;20460;-76
2021/07/02 06:25:45;;;;;;;12.97;11.77;;;18.90;1.00;;;;;;5084954;28;20465;-76
2021/07/02 06:28:11;;;;;;;13.70;11.40;;;19.00;1.00;;;;;;5088914;28;20441;-76
2021/07/02 06:30:40;;;;;;;13.30;11.97;;;19.10;1.00;;;;;;5081859;28;20450;-77
2021/07/02 06:33:07;;;;;;;14.57;12.50;;;19.10;1.00;;;;;;5086911;28;20470;-76
2021/07/02 06:35:33;;;;;;;14.60;13.03;;;19.10;1.00;;;;;;5087227;28;20458;-77
2021/07/02 06:38:00;;;;;;;12.93;11.70;;;19.10;1.00;;;;;;5086227;28;20481;-77
2021/07/02 06:40:29;;;;;;;12.80;11.60;;;19.20;1.00;;;;;;5087811;28;20879;-75
2021/07/02 06:42:56;;;;;;;12.10;10.90;;;19.30;1.00;;;;;;5085731;28;20516;-74
2021/07/02 06:45:23;;;;;;;12.80;10.93;;;19.40;1.00;;;;;;5087320;28;20435;-75
2021/07/02 06:47:57;;;;;;;14.27;12.83;;;19.50;1.00;;;;;;5088349;28;20518;-77
2021/07/02 06:50:24;;;;;;;15.17;11.70;;;19.60;1.00;;;;;;5088870;28;20467;-76
2021/07/02 06:52:51;;;;;;;15.00;13.10;;;19.50;1.00;;;;;;5085623;28;20537;-76
2021/07/02 06:55:18;;;;;;;13.37;11.93;;;19.60;1.00;;;;;;5088650;28;20440;-76
2021/07/02 06:57:44;;;;;;;14.43;12.93;;;19.50;1.00;;;;;;5085283;28;20453;-76
2021/07/02 07:00:12;;;;;;;13.87;12.27;;;19.50;1.00;;;;;;5087486;28;20470;-76
2021/07/02 07:02:38;;;;;;;13.17;11.87;;;19.50;1.00;;;;;;5085947;28;20501;-76
2021/07/02 07:05:09;;;;;;;12.53;11.33;;;19.60;1.00;;;;;;5091138;28;20482;-76
2021/07/02 07:07:35;;;;;;;13.60;11.40;;;19.60;1.00;;;;;;5084173;28;20455;-76
2021/07/02 07:10:02;;;;;;;14.80;13.40;;;19.70;1.00;;;;;;5086606;28;20435;-76
2021/07/02 07:12:29;;;;;;;12.63;11.53;;;19.80;1.00;;;;;;5083651;28;20459;-75
2021/07/02 07:14:56;;;;;;;12.53;9.97;;;19.90;1.00;;;;;;5088636;28;20436;-76
2021/07/02 07:17:22;;;;;;;11.87;10.70;;;19.90;1.00;;;;;;5087967;28;20423;-77
2021/07/02 07:19:49;;;;;;;11.10;9.90;;;19.90;1.00;;;;;;5088505;28;20460;-76
2021/07/02 07:22:17;;;;;;;10.10;9.10;;;20.00;1.00;;;;;;5086204;28;20581;-77
2021/07/02 07:24:44;;;;;;;10.87;9.87;;;20.10;1.00;;;;;;5088466;28;20829;-76
2021/07/02 07:27:12;;;;;;;12.60;11.43;;;20.30;1.00;;;;;;5088376;28;21289;-76
2021/07/02 07:29:39;;;;;;;10.17;9.03;;;20.40;1.00;;;;;;5086902;28;20451;-76
2021/07/02 07:32:06;;;;;;;12.00;10.80;;;20.60;1.00;;;;;;5088382;28;20436;-77
2021/07/02 07:34:37;;;;;;;10.63;9.60;;;20.70;1.00;;;;;;5085207;28;20462;-76
2021/07/02 07:37:07;;;;;;;11.40;9.40;;;20.90;1.00;;;;;;5085903;28;20444;-77
2021/07/02 07:39:35;;;;;;;10.77;9.63;;;21.00;1.00;;;;;;5086482;28;20901;-76
2021/07/02 07:42:02;;;;;;;8.40;7.50;;;21.20;1.00;;;;;;5089557;28;20444;-77
2021/07/02 07:44:28;;;;;;;8.83;7.80;;;21.30;1.00;;;;;;5087676;28;20459;-77
2021/07/02 07:46:56;;;;;;;10.50;9.13;;;21.40;1.00;;;;;;5084241;28;20459;-76
2021/07/02 07:49:22;;;;;;;8.87;8.07;;;21.40;1.00;;;;;;5085241;28;20473;-77
2021/07/02 07:51:51;;;;;;;7.37;6.63;;;21.40;1.00;;;;;;5088073;28;20451;-76
2021/07/02 07:54:17;;;;;;;8.20;7.37;;;21.40;1.00;;;;;;5084836;28;20538;-76
2021/07/02 07:56:51;;;;;;;8.10;7.30;;;21.40;1.00;;;;;;5084596;28;20463;-76
2021/07/02 07:59:18;;;;;;;8.90;8.00;;;21.50;1.00;;;;;;5088215;28;20466;-77
2021/07/02 08:01:45;;;;;;;9.30;6.90;;;21.70;1.00;;;;;;5088917;28;20472;-76
2021/07/02 08:04:13;;;;;;;8.70;7.47;;;22.00;1.00;;;;;;5087685;28;20507;-76
2021/07/02 08:06:40;;;;;;;10.07;6.77;;;22.30;1.00;;;;;;5083677;28;20439;-76
2021/07/02 08:09:07;;;;;;;6.70;6.10;;;22.50;1.00;;;;;;5087724;28;20454;-77
2021/07/02 08:11:34;;;;;;;12.40;6.63;;;22.80;1.00;;;;;;5088093;28;20443;-78
2021/07/02 08:14:02;;;;;;;6.90;6.20;;;23.00;1.00;;;;;;5091328;28;20489;-78
2021/07/02 08:16:29;;;;;;;6.60;5.90;;;23.20;1.00;;;;;;5085339;28;20460;-76
2021/07/02 08:18:55;;;;;;;8.23;5.90;;;23.30;1.00;;;;;;5088703;28;20472;-79
2021/07/02 08:21:22;;;;;;;6.53;5.93;;;23.40;1.00;;;;;;5096284;28;20457;-78
2021/07/02 08:23:50;;;;;;;6.37;5.67;;;23.50;1.00;;;;;;5097146;27;20512;-77
2021/07/02 08:26:17;;;;;;;7.43;5.90;;;23.70;1.00;;;;;;5090194;28;21045;-77
2021/07/02 08:31:30;;;;;;;6.87;6.27;;;23.50;1.00;;;;;;5084018;28;20438;-76
2021/07/02 08:33:57;;;;;;;7.43;5.70;;;23.50;1.00;;;;;;5089079;28;20444;-77
2021/07/02 08:36:24;;;;;;;7.27;6.00;;;23.60;1.00;;;;;;5088122;28;20954;-78
2021/07/02 08:38:50;;;;;;;7.50;6.80;;;23.60;1.00;;;;;;5090020;28;20456;-77
2021/07/02 08:41:17;;;;;;;7.30;6.70;;;23.60;1.00;;;;;;5090643;28;20465;-76
2021/07/02 08:43:46;;;;;;;8.27;6.80;;;23.60;1.00;;;;;;5085000;28;20464;-77
2021/07/02 08:46:14;;;;;;;6.30;5.70;;;23.80;1.00;;;;;;5091787;28;20597;-77
2021/07/02 08:48:45;;;;;;;7.03;6.43;;;24.00;1.00;;;;;;5085090;28;21225;-77
2021/07/02 08:51:12;;;;;;;10.80;6.80;;;24.10;1.00;;;;;;5086675;28;20455;-76
2021/07/02 08:53:39;;;;;;;8.30;6.20;;;24.40;1.00;;;;;;5089974;28;20540;-77
2021/07/02 08:56:06;;;;;;;7.20;6.60;;;24.50;1.00;;;;;;5088765;28;20432;-77
2021/07/02 08:58:34;;;;;;;6.73;6.23;;;24.50;1.00;;;;;;5089804;28;20438;-76
2021/07/02 09:01:05;;;;;;;6.90;6.20;;;24.40;1.00;;;;;;5088151;28;20541;-76
2021/07/02 09:03:35;;;;;;;7.80;6.47;;;24.40;1.00;;;;;;5089098;28;20869;-77
2021/07/02 09:06:15;;;;;;;7.27;6.47;;;24.50;1.00;;;;;;5088164;28;20452;-76
2021/07/02 09:08:57;;;;;;;6.90;6.30;;;24.50;1.00;;;;;;5089797;28;20466;-77
2021/07/02 09:11:26;;;;;;;7.37;6.70;;;24.50;1.00;;;;;;5109556;22;20474;-73
2021/07/02 09:13:52;;;;;;;5.97;5.37;;;24.60;1.00;;;;;;5066898;28;21607;-76
2021/07/02 09:16:23;;;;;;;5.47;4.77;;;24.80;1.00;;;;;;5064574;28;20442;-72
2021/07/02 09:18:50;;;;;;;7.80;5.90;;;25.10;1.00;;;;;;5064881;28;20517;-74
2021/07/02 09:21:26;;;;;;;5.00;4.40;;;25.20;1.00;;;;;;5067787;28;20454;-74
2021/07/02 09:23:56;;;;;;;5.17;4.77;;;25.30;1.00;;;;;;5044031;28;20912;-74
2021/07/02 09:26:37;;;;;;;6.67;5.60;;;25.30;1.00;;;;;;5047890;28;20527;-74
2021/07/02 09:29:16;;;;;;;6.17;5.67;;;25.40;1.00;;;;;;5044310;28;20443;-75
2021/07/02 09:31:43;;;;;;;5.77;5.27;;;25.30;1.00;;;;;;5050114;28;20914;-75
2021/07/02 09:34:10;;;;;;;7.10;6.40;;;25.30;1.00;;;;;;5047076;28;20450;-73
2021/07/02 09:36:38;;;;;;;7.17;6.50;;;25.20;1.00;;;;;;5045971;28;20458;-74
2021/07/02 09:39:28;;;;;;;6.53;5.83;;;25.30;1.00;;;;;;5051468;28;20500;-75
2021/07/02 09:41:55;;;;;;;5.27;4.80;;;25.90;1.00;;;;;;5043807;28;20452;-75
2021/07/02 09:44:22;;;;;;;8.57;4.70;;;26.60;1.00;;;;;;5049954;28;20505;-73
2021/07/02 09:46:49;;;;;;;6.10;5.50;;;27.70;1.00;;;;;;5043068;28;20431;-74
2021/07/02 09:49:24;;;;;;;5.87;5.33;;;29.00;1.00;;;;;;5047630;28;20443;-74
2021/07/02 09:51:53;;;;;;;5.70;5.20;;;30.30;1.00;;;;;;5042236;28;20448;-77
2021/07/02 09:54:19;;;;;;;5.63;5.13;;;31.30;1.00;;;;;;5046723;28;21009;-78
2021/07/02 09:56:46;;;;;;;6.37;5.77;;;31.90;1.00;;;;;;5050702;28;20446;-78
2021/07/02 09:59:16;;;;;;;6.97;6.27;;;32.30;1.00;;;;;;5049189;28;20498;-76
2021/07/02 10:01:43;;;;;;;5.80;5.30;;;32.30;1.00;;;;;;5046677;28;20468;-77
2021/07/02 10:04:11;;;;;;;7.30;6.20;;;31.60;1.00;;;;;;5040363;28;20451;-77
2021/07/02 10:06:38;;;;;;;6.17;5.57;;;30.70;1.00;;;;;;5048044;28;20469;-77
2021/07/02 10:09:06;;;;;;;7.80;6.90;;;29.90;1.00;;;;;;5043202;28;20934;-77
2021/07/02 10:11:35;;;;;;;7.33;6.73;;;30.20;1.00;;;;;;5051877;28;20460;-76
2021/07/02 10:14:02;;;;;;;7.60;7.00;;;30.40;1.00;;;;;;5046692;28;20455;-77
2021/07/02 10:16:30;;;;;;;7.53;6.80;;;29.90;1.00;;;;;;5045549;28;20565;-77
2021/07/02 10:18:59;;;;;;;9.23;6.57;;;29.20;1.00;;;;;;5041463;28;20519;-77
2021/07/02 10:21:26;;;;;;;7.23;6.53;;;29.80;1.00;;;;;;5049908;28;20441;-76
2021/07/02 10:23:56;;;;;;;7.00;6.40;;;31.00;1.00;;;;;;5042976;28;20572;-77
2021/07/02 10:26:28;;;;;;;7.40;6.80;;;32.10;1.00;;;;;;5046752;28;20459;-77
2021/07/02 10:28:58;;;;;;;7.87;7.07;;;32.70;1.00;;;;;;5046589;28;20452;-77
2021/07/02 10:31:25;;;;;;;6.27;5.77;;;33.10;1.00;;;;;;5043127;28;20460;-77
2021/07/02 10:33:55;;;;;;;6.30;5.80;;;33.60;1.00;;;;;;5046091;28;20454;-77
2021/07/02 10:36:23;;;;;;;7.00;6.30;;;33.90;1.00;;;;;;5048540;28;20441;-77
2021/07/02 10:38:51;;;;;;;6.30;5.80;;;34.40;1.00;;;;;;5046097;28;20559;-78
2021/07/02 10:41:20;;;;;;;6.27;5.67;;;34.60;1.00;;;;;;5049988;28;20548;-77
2021/07/02 10:44:06;;;;;;;6.90;6.20;;;34.80;1.00;;;;;;5051921;28;20772;-77
2021/07/02 10:46:34;;;;;;;7.97;7.10;;;34.20;1.00;;;;;;5043472;28;20515;-77
2021/07/02 10:49:03;;;;;;;7.80;6.87;;;33.40;1.00;;;;;;5048653;28;20449;-76
2021/07/02 10:51:55;;;;;;;7.30;6.50;;;33.50;1.00;;;;;;5045884;28;20475;-75
2021/07/02 10:54:38;;;;;;;9.27;7.03;;;33.80;1.00;;;;;;5043035;28;20451;-77
2021/07/02 10:57:07;;;;;;;6.13;5.50;;;34.30;1.00;;;;;;5048614;28;20819;-78
2021/07/02 11:00:10;;;;;;;6.50;5.90;;;34.70;1.00;;;;;;5044534;28;20420;-77
2021/07/02 11:02:38;;;;;;;6.03;5.53;;;35.40;1.00;;;;;;5054545;28;20447;-75
2021/07/02 11:05:33;;;;;;;5.80;5.20;;;35.60;1.00;;;;;;5045389;28;20492;-77
2021/07/02 11:08:00;;;;;;;7.73;5.87;;;34.10;1.00;;;;;;5050025;28;20809;-77
2021/07/02 11:10:29;;;;;;;5.87;5.37;;;32.50;1.00;;;;;;5049351;28;20489;-77
2021/07/02 11:13:04;;;;;;;5.20;4.80;;;32.90;1.00;;;;;;5048645;28;21276;-78
2021/07/02 11:15:33;;;;;;;6.53;5.97;;;34.10;1.00;;;;;;5049592;28;20483;-76
2021/07/02 11:18:38;;;;;;;6.27;5.70;;;35.00;1.00;;;;;;5045203;28;20531;-77
2021/07/02 11:21:17;;;;;;;8.77;8.13;;;35.80;1.00;;;;;;5044548;28;20449;-77
2021/07/02 11:23:44;;;;;;;5.67;5.20;;;36.20;1.00;;;;;;5044495;28;21348;-76
2021/07/02 11:26:13;;;;;;;6.90;6.30;;;36.10;1.00;;;;;;5043471;28;20571;-77
2021/07/02 11:28:51;;;;;;;5.33;4.93;;;36.20;1.00;;;;;;5051406;28;20432;-75
2021/07/02 11:31:19;;;;;;;5.30;4.90;;;35.00;1.00;;;;;;5041609;28;20444;-76
2021/07/02 11:33:48;;;;;;;5.80;5.30;;;33.80;1.00;;;;;;5052939;28;20508;-76
2021/07/02 11:36:18;;;;;;;5.17;4.67;;;34.00;1.00;;;;;;5041182;28;20592;-77
2021/07/02 11:38:54;;;;;;;5.20;4.80;;;34.50;1.00;;;;;;5054385;28;20547;-77
2021/07/02 11:41:23;;;;;;;7.30;6.60;;;35.10;1.00;;;;;;5042465;28;21278;-77
2021/07/02 11:43:50;;;;;;;6.60;6.10;;;36.10;1.00;;;;;;5050772;28;20551;-77
2021/07/02 11:46:20;;;;;;;7.00;6.27;;;36.90;1.00;;;;;;5047267;28;21473;-76
2021/07/02 11:48:48;;;;;;;8.27;5.63;;;36.90;1.00;;;;;;5053142;28;20428;-77
2021/07/02 11:51:18;;;;;;;7.30;5.27;;;37.40;1.00;;;;;;5048279;28;20421;-78
2021/07/02 11:53:47;;;;;;;6.43;5.90;;;37.40;1.00;;;;;;5051147;28;20464;-77
2021/07/02 11:56:16;;;;;;;6.67;6.17;;;37.70;1.00;;;;;;5055489;28;20487;-77
2021/07/02 11:58:44;;;;;;;8.60;6.47;;;38.00;1.00;;;;;;5049083;28;20480;-76
2021/07/02 12:01:13;;;;;;;5.33;4.77;;;37.90;1.00;;;;;;5048448;28;20536;-76
2021/07/02 12:03:46;;;;;;;5.67;5.17;;;37.60;1.00;;;;;;5045301;28;20493;-77
2021/07/02 12:06:24;;;;;;;5.67;5.27;;;36.50;1.00;;;;;;5050646;28;20505;-77
2021/07/02 12:08:51;;;;;;;6.43;5.90;;;34.90;1.00;;;;;;5044910;28;20495;-78
2021/07/02 12:11:29;;;;;;;6.57;6.00;;;33.80;1.00;;;;;;5052286;28;20461;-78
2021/07/02 12:13:57;;;;;;;8.23;5.90;;;33.90;1.00;;;;;;5048935;28;20494;-78
2021/07/02 12:16:30;;;;;;;7.83;7.03;;;33.00;1.00;;;;;;5045466;28;20462;-78
2021/07/02 12:18:58;;;;;;;6.93;6.33;;;31.80;1.00;;;;;;5050937;28;21161;-76
2021/07/02 12:21:29;;;;;;;6.13;5.63;;;31.70;1.00;;;;;;5043650;28;20445;-77
2021/07/02 12:23:57;;;;;;;5.73;5.23;;;32.80;1.00;;;;;;5050772;28;20428;-77
2021/07/02 12:26:26;;;;;;;7.57;6.97;;;33.10;1.00;;;;;;5048400;28;20705;-76
2021/07/02 12:28:59;;;;;;;6.50;5.90;;;32.10;1.00;;;;;;5054895;28;20460;-77
2021/07/02 12:31:28;;;;;;;8.20;7.50;;;31.50;1.00;;;;;;5046393;28;20894;-76
2021/07/02 12:33:55;;;;;;;6.30;5.80;;;32.40;1.00;;;;;;5049169;28;20486;-77
2021/07/02 12:36:24;;;;;;;5.83;5.43;;;33.00;1.00;;;;;;5046757;28;20543;-77
2021/07/02 12:39:03;;;;;;;6.00;5.50;;;34.00;1.00;;;;;;5053632;28;20445;-78
2021/07/02 12:41:39;;;;;;;4.93;4.43;;;35.00;1.00;;;;;;5047456;28;20535;-77
2021/07/02 12:44:06;;;;;;;5.87;5.37;;;35.70;1.00;;;;;;5045335;28;20452;-77
2021/07/02 12:46:33;;;;;;;6.57;5.50;;;35.50;1.00;;;;;;5055634;28;20629;-78
2021/07/02 12:49:20;;;;;;;5.70;5.27;;;34.90;1.00;;;;;;5049056;28;20566;-77
2021/07/02 12:54:47;;;;;;;5.60;5.10;;;35.00;1.00;;;;;;5056910;28;20444;-77
2021/07/02 12:54:52;;;;;;;6.30;5.80;;;35.20;1.00;;;;;;5044301;28;20574;-78